Time;durP1;ratioP1;P1;durP2;ratioP2;P2;SDS_P1;SDS_P2;PMS_P1;PMS_P2;Temp;Humidity;BMP_temperature;BMP_pressure;BME280_temperature;BME280_humidity;BME280_pressure;Samples;Min_cycle;Max_cycle;Signal;HPM_P1;HPM_P2
2021/03/29 00:02:12;;;;;;;9.85;5.68;;;7.00;99.90;;;;;;5034213;28;20029;-76
2021/03/29 00:04:37;;;;;;;11.27;6.85;;;6.80;99.90;;;;;;5034871;28;20040;-75
2021/03/29 00:07:05;;;;;;;9.30;5.22;;;6.90;99.90;;;;;;5018645;28;20480;-75
2021/03/29 00:09:35;;;;;;;10.90;6.28;;;6.90;99.90;;;;;;5027992;28;20033;-75
2021/03/29 00:12:06;;;;;;;9.25;5.50;;;6.90;99.90;;;;;;5027940;28;20022;-75
2021/03/29 00:14:33;;;;;;;11.10;7.30;;;6.80;99.90;;;;;;5015074;28;20032;-76
2021/03/29 00:16:59;;;;;;;15.98;8.88;;;6.70;99.90;;;;;;5017826;28;20470;-75
2021/03/29 00:19:36;;;;;;;12.60;8.63;;;6.60;99.90;;;;;;5031771;28;20093;-75
2021/03/29 00:22:03;;;;;;;11.63;5.70;;;6.60;99.90;;;;;;5024909;28;20056;-75
2021/03/29 00:24:30;;;;;;;9.45;5.15;;;6.60;99.90;;;;;;5033672;28;20039;-75
2021/03/29 00:26:56;;;;;;;9.57;4.97;;;6.60;99.90;;;;;;5034454;28;20061;-75
2021/03/29 00:29:22;;;;;;;11.10;5.43;;;6.50;99.90;;;;;;5033250;28;20064;-75
2021/03/29 00:31:47;;;;;;;14.73;10.10;;;6.40;99.90;;;;;;5034426;28;20088;-75
2021/03/29 00:34:14;;;;;;;18.77;9.90;;;6.60;99.90;;;;;;5032995;28;20497;-75
2021/03/29 00:36:40;;;;;;;16.25;9.25;;;6.70;99.90;;;;;;5034266;28;20100;-76
2021/03/29 00:39:07;;;;;;;12.25;9.18;;;6.80;99.90;;;;;;5033986;28;20036;-75
2021/03/29 00:41:34;;;;;;;11.80;7.70;;;6.80;99.90;;;;;;5015137;28;20026;-75
2021/03/29 00:44:03;;;;;;;7.97;5.28;;;6.70;99.90;;;;;;5012871;28;20072;-75
2021/03/29 00:46:30;;;;;;;10.00;5.78;;;6.60;99.90;;;;;;5014186;28;20037;-75
2021/03/29 00:48:57;;;;;;;7.45;5.00;;;6.60;99.90;;;;;;5028134;28;20125;-75
2021/03/29 00:51:28;;;;;;;6.10;4.63;;;6.70;99.90;;;;;;5033535;28;20061;-75
2021/03/29 00:54:00;;;;;;;8.98;4.55;;;6.60;99.90;;;;;;5033981;28;20496;-75
2021/03/29 00:56:27;;;;;;;10.77;4.03;;;6.40;99.90;;;;;;5033934;28;20018;-75
2021/03/29 00:58:54;;;;;;;8.30;3.55;;;6.20;99.90;;;;;;5014589;28;20022;-76
2021/03/29 01:01:27;;;;;;;11.93;5.47;;;6.10;99.90;;;;;;5013718;28;20041;-75
2021/03/29 01:03:59;;;;;;;9.02;5.00;;;6.20;99.90;;;;;;5018195;28;20449;-75
2021/03/29 01:06:28;;;;;;;8.48;4.80;;;6.30;99.90;;;;;;5033392;28;20158;-76
2021/03/29 01:08:57;;;;;;;9.65;5.25;;;6.30;99.90;;;;;;5033411;28;20026;-75
2021/03/29 01:11:29;;;;;;;8.07;4.80;;;6.10;99.90;;;;;;5033267;28;20108;-76
2021/03/29 01:14:23;;;;;;;10.73;5.28;;;6.20;99.90;;;;;;5033576;28;20151;-76
2021/03/29 01:17:16;;;;;;;8.45;5.30;;;6.00;99.90;;;;;;5013440;28;20045;-76
2021/03/29 01:19:45;;;;;;;5.97;4.60;;;5.70;99.90;;;;;;5011446;28;20417;-75
2021/03/29 01:22:16;;;;;;;5.72;3.80;;;5.90;99.90;;;;;;5013345;28;20514;-75
2021/03/29 01:24:51;;;;;;;7.18;4.07;;;5.90;99.90;;;;;;5013433;28;20105;-75
2021/03/29 01:27:31;;;;;;;5.35;3.80;;;5.90;99.90;;;;;;5027517;28;20112;-75
2021/03/29 01:29:58;;;;;;;5.38;3.72;;;5.90;99.90;;;;;;5032918;28;20459;-75
2021/03/29 01:32:25;;;;;;;7.28;3.97;;;5.80;99.90;;;;;;5033212;28;20052;-75
2021/03/29 01:34:52;;;;;;;6.15;4.57;;;5.70;99.90;;;;;;5033221;28;20029;-76
2021/03/29 01:37:19;;;;;;;7.95;4.60;;;5.60;99.90;;;;;;5032817;28;20045;-75
2021/03/29 01:39:47;;;;;;;10.20;4.82;;;5.60;99.90;;;;;;5032962;28;20377;-75
2021/03/29 01:42:14;;;;;;;9.57;4.50;;;5.60;99.90;;;;;;5032954;28;20363;-75
2021/03/29 01:44:42;;;;;;;7.38;4.03;;;5.60;99.90;;;;;;5032802;28;20116;-75
2021/03/29 01:47:08;;;;;;;7.22;4.25;;;5.60;99.90;;;;;;5033066;28;20075;-75
2021/03/29 01:49:35;;;;;;;7.53;4.53;;;5.70;99.90;;;;;;5031964;28;20030;-75
2021/03/29 01:52:04;;;;;;;6.57;3.83;;;5.80;99.90;;;;;;5032845;28;20540;-75
2021/03/29 01:54:32;;;;;;;7.15;4.20;;;5.80;99.90;;;;;;5032770;28;20381;-75
2021/03/29 01:56:58;;;;;;;7.60;3.78;;;5.60;99.90;;;;;;5029242;28;20089;-75
2021/03/29 01:59:24;;;;;;;6.47;3.83;;;5.50;99.90;;;;;;5013173;28;20209;-75
2021/03/29 02:01:49;;;;;;;6.32;3.28;;;5.70;99.90;;;;;;5012798;28;20418;-75
2021/03/29 02:04:16;;;;;;;6.60;3.90;;;5.60;99.90;;;;;;5012663;28;20026;-75
2021/03/29 02:06:42;;;;;;;7.72;4.05;;;5.40;99.90;;;;;;5012963;28;20445;-76
2021/03/29 02:09:10;;;;;;;5.95;3.72;;;5.00;99.90;;;;;;5012905;28;20029;-76
2021/03/29 02:11:38;;;;;;;7.45;4.50;;;4.90;99.90;;;;;;5012527;28;20474;-75
2021/03/29 02:14:06;;;;;;;7.65;5.13;;;5.00;99.90;;;;;;5012953;28;20025;-76
2021/03/29 02:16:33;;;;;;;5.78;4.10;;;5.30;99.90;;;;;;5019726;28;20589;-75
2021/03/29 02:19:04;;;;;;;8.63;4.05;;;5.70;99.90;;;;;;5012753;28;20038;-75
2021/03/29 02:21:36;;;;;;;8.20;3.95;;;5.60;99.90;;;;;;5012923;28;20034;-76
2021/03/29 02:24:04;;;;;;;7.10;4.40;;;5.50;99.90;;;;;;5011393;28;20026;-76
2021/03/29 02:26:33;;;;;;;7.65;3.80;;;5.30;99.90;;;;;;5012911;28;20037;-75
2021/03/29 02:28:59;;;;;;;3.83;3.45;;;5.30;99.90;;;;;;5023891;28;20029;-76
2021/03/29 02:31:27;;;;;;;5.97;3.45;;;5.30;99.90;;;;;;5032324;28;20037;-75
2021/03/29 02:33:55;;;;;;;14.00;4.60;;;5.30;99.90;;;;;;5031881;28;20025;-75
2021/03/29 02:36:22;;;;;;;7.63;3.75;;;5.30;99.90;;;;;;5030880;28;20421;-75
2021/03/29 02:38:51;;;;;;;14.10;6.45;;;5.40;99.90;;;;;;5032306;28;20030;-75
2021/03/29 02:41:22;;;;;;;11.43;5.80;;;5.30;99.90;;;;;;5032484;28;20033;-75
2021/03/29 02:43:49;;;;;;;11.85;6.55;;;5.10;99.90;;;;;;5031865;28;20124;-76
2021/03/29 02:46:16;;;;;;;10.32;6.50;;;5.00;99.90;;;;;;5032069;28;20044;-75
2021/03/29 02:48:45;;;;;;;18.52;8.43;;;5.10;99.90;;;;;;5031787;28;20056;-75
2021/03/29 02:51:14;;;;;;;16.77;8.18;;;5.00;99.90;;;;;;5032231;28;20559;-75
2021/03/29 02:53:56;;;;;;;16.42;7.35;;;5.00;99.90;;;;;;5032477;28;20025;-75
2021/03/29 02:56:26;;;;;;;16.95;8.32;;;4.90;99.90;;;;;;5032369;28;20026;-75
2021/03/29 02:58:56;;;;;;;12.65;6.78;;;4.90;99.90;;;;;;5013243;28;20034;-75
2021/03/29 03:01:34;;;;;;;14.63;7.35;;;5.00;99.90;;;;;;5011006;28;20515;-75
2021/03/29 03:04:00;;;;;;;12.85;5.68;;;5.20;99.90;;;;;;5011889;28;20033;-76
2021/03/29 03:06:30;;;;;;;13.00;6.50;;;5.40;99.90;;;;;;5018258;28;20022;-75
2021/03/29 03:09:01;;;;;;;11.02;5.90;;;5.30;99.90;;;;;;5031888;28;20037;-76
2021/03/29 03:11:27;;;;;;;13.95;6.53;;;5.10;99.90;;;;;;5030791;28;20374;-75
2021/03/29 03:13:54;;;;;;;11.05;6.03;;;4.80;99.90;;;;;;5031433;28;20465;-75
2021/03/29 03:16:20;;;;;;;7.63;5.15;;;4.60;99.90;;;;;;5018225;28;20033;-75
2021/03/29 03:18:48;;;;;;;6.63;3.65;;;4.70;99.90;;;;;;5011980;28;20026;-76
2021/03/29 03:21:23;;;;;;;5.57;4.00;;;4.70;99.90;;;;;;5010936;28;20419;-75
2021/03/29 03:23:54;;;;;;;6.95;4.32;;;4.80;99.90;;;;;;5012296;28;20053;-75
2021/03/29 03:26:21;;;;;;;9.05;4.47;;;4.90;99.90;;;;;;5012801;28;20022;-76
2021/03/29 03:28:48;;;;;;;12.18;4.20;;;4.80;99.90;;;;;;5020286;28;20025;-75
2021/03/29 03:31:13;;;;;;;6.80;3.75;;;4.70;99.90;;;;;;5035084;28;20128;-75
2021/03/29 03:33:40;;;;;;;5.93;4.15;;;4.70;99.90;;;;;;5035629;28;20113;-75
2021/03/29 03:36:06;;;;;;;9.60;4.30;;;4.60;99.90;;;;;;5035507;28;20045;-75
2021/03/29 03:38:36;;;;;;;8.23;4.55;;;4.70;99.90;;;;;;5035798;28;20025;-76
2021/03/29 03:41:04;;;;;;;;;;;4.60;99.90;;;;;;5036115;28;20079;-75
2021/03/29 03:43:34;;;;;;;10.73;3.85;;;4.50;99.90;;;;;;5034344;28;19909;-75
2021/03/29 03:46:08;;;;;;;5.40;3.50;;;4.40;99.90;;;;;;5032121;28;20517;-75
2021/03/29 03:48:36;;;;;;;6.82;3.70;;;4.40;99.90;;;;;;5015776;28;20026;-75
2021/03/29 03:51:02;;;;;;;6.18;3.83;;;4.40;99.90;;;;;;5015782;28;20101;-75
2021/03/29 03:53:29;;;;;;;5.65;4.15;;;4.40;99.90;;;;;;5015629;28;20467;-75
2021/03/29 03:55:58;;;;;;;4.72;3.10;;;4.50;99.90;;;;;;5015276;28;20429;-75
2021/03/29 03:58:25;;;;;;;7.00;4.15;;;4.40;99.90;;;;;;5015808;28;20026;-75
2021/03/29 04:00:51;;;;;;;6.35;4.05;;;4.30;99.90;;;;;;5014913;28;20042;-75
2021/03/29 04:03:17;;;;;;;8.10;4.47;;;4.50;99.90;;;;;;5015428;28;20034;-76
2021/03/29 04:05:43;;;;;;;4.72;3.35;;;4.50;99.90;;;;;;5015465;28;20030;-75
2021/03/29 04:08:10;;;;;;;9.00;4.15;;;4.50;99.90;;;;;;5013828;28;20501;-76
2021/03/29 04:13:03;;;;;;;3.47;3.10;;;4.30;99.90;;;;;;5015217;28;20114;-75
2021/03/29 04:15:29;;;;;;;6.60;4.22;;;4.30;99.90;;;;;;5015242;28;20032;-76
2021/03/29 04:17:55;;;;;;;9.13;4.55;;;4.30;99.90;;;;;;5034907;28;20018;-76
2021/03/29 04:20:21;;;;;;;9.10;4.43;;;4.30;99.90;;;;;;5034939;28;20100;-76
2021/03/29 04:22:46;;;;;;;8.18;4.00;;;4.20;99.90;;;;;;5033502;28;20033;-76
2021/03/29 04:25:13;;;;;;;8.23;4.20;;;4.20;99.90;;;;;;5034346;28;20438;-75
2021/03/29 04:27:39;;;;;;;8.95;4.32;;;4.30;99.90;;;;;;5034812;28;20026;-75
2021/03/29 04:30:12;;;;;;;6.78;3.63;;;4.40;99.90;;;;;;5033374;28;20068;-75
2021/03/29 04:32:39;;;;;;;6.32;4.60;;;4.60;99.90;;;;;;5034059;28;20025;-75
2021/03/29 04:35:05;;;;;;;8.32;5.07;;;4.60;99.90;;;;;;5034775;28;20028;-75
2021/03/29 04:37:31;;;;;;;8.30;4.82;;;4.40;99.90;;;;;;5034347;28;20029;-75
2021/03/29 04:39:57;;;;;;;7.88;5.40;;;4.10;99.90;;;;;;5033933;28;20443;-75
2021/03/29 04:42:23;;;;;;;14.43;6.10;;;4.00;99.90;;;;;;5034574;28;20069;-75
2021/03/29 04:44:49;;;;;;;10.27;4.35;;;4.00;99.90;;;;;;5030709;28;20124;-75
2021/03/29 04:47:14;;;;;;;11.65;6.63;;;4.00;99.90;;;;;;5028639;28;20025;-76
2021/03/29 04:49:41;;;;;;;7.68;5.97;;;4.00;99.90;;;;;;5022390;28;20014;-75
2021/03/29 04:52:08;;;;;;;12.60;6.38;;;4.00;99.90;;;;;;5022214;28;20506;-75
2021/03/29 04:54:34;;;;;;;10.50;6.13;;;4.10;99.90;;;;;;5024452;28;20041;-75
2021/03/29 04:57:00;;;;;;;8.98;6.95;;;4.20;99.90;;;;;;5025763;28;20043;-75
2021/03/29 04:59:26;;;;;;;8.63;5.93;;;4.10;99.90;;;;;;5024373;28;20516;-75
2021/03/29 05:01:52;;;;;;;6.32;5.68;;;4.10;99.90;;;;;;5025497;28;20029;-75
2021/03/29 05:04:18;;;;;;;10.95;7.20;;;4.00;99.90;;;;;;5023827;28;20113;-75
2021/03/29 05:06:43;;;;;;;10.95;7.47;;;4.00;99.90;;;;;;5020558;28;20034;-76
2021/03/29 05:09:09;;;;;;;11.73;7.40;;;3.90;99.90;;;;;;5022012;28;20041;-75
2021/03/29 05:11:46;;;;;;;15.48;8.65;;;3.80;99.90;;;;;;5023103;28;20030;-75
2021/03/29 05:14:13;;;;;;;15.00;9.48;;;3.80;99.90;;;;;;5024681;28;20026;-75
2021/03/29 05:16:39;;;;;;;18.50;9.10;;;3.80;99.90;;;;;;5033062;28;20034;-76
2021/03/29 05:19:04;;;;;;;13.68;8.43;;;3.90;99.90;;;;;;5033740;28;20084;-75
2021/03/29 05:21:30;;;;;;;17.48;9.02;;;3.90;99.90;;;;;;5033595;28;20033;-75
2021/03/29 05:23:56;;;;;;;13.85;8.75;;;3.90;99.90;;;;;;5031264;28;20079;-75
2021/03/29 05:26:22;;;;;;;12.90;7.65;;;4.00;99.90;;;;;;5017475;28;20048;-74
2021/03/29 05:28:48;;;;;;;13.25;8.68;;;3.80;99.90;;;;;;5020173;28;21332;-75
2021/03/29 05:31:14;;;;;;;16.10;9.65;;;3.60;99.90;;;;;;5024631;28;20045;-75
2021/03/29 05:33:40;;;;;;;18.92;11.82;;;3.70;99.90;;;;;;5018344;28;20091;-76
2021/03/29 05:36:11;;;;;;;14.60;8.77;;;3.90;99.90;;;;;;5024612;28;20486;-75
2021/03/29 05:38:37;;;;;;;12.38;8.07;;;3.80;99.90;;;;;;5015894;28;20076;-76
2021/03/29 05:41:03;;;;;;;7.53;5.28;;;3.90;99.90;;;;;;5029408;28;20021;-75
2021/03/29 05:43:30;;;;;;;15.82;6.38;;;3.90;99.90;;;;;;5022032;28;20037;-75
2021/03/29 05:45:56;;;;;;;12.35;6.03;;;4.00;99.90;;;;;;5017530;28;20030;-75
2021/03/29 05:48:22;;;;;;;7.82;4.68;;;3.90;99.90;;;;;;5024180;28;20048;-76
2021/03/29 05:50:48;;;;;;;7.25;5.43;;;3.70;99.90;;;;;;5013324;28;20037;-75
2021/03/29 05:53:14;;;;;;;12.68;6.55;;;3.80;99.90;;;;;;5022389;28;21189;-75
2021/03/29 05:55:42;;;;;;;15.63;6.90;;;3.80;99.90;;;;;;5023627;28;20075;-75
2021/03/29 06:00:55;;;;;;;7.45;4.97;;;4.00;99.90;;;;;;5000898;28;20033;-75
2021/03/29 06:03:36;;;;;;;9.55;4.68;;;3.90;99.90;;;;;;5001943;28;20033;-75
2021/03/29 06:06:21;;;;;;;7.20;3.22;;;4.00;99.90;;;;;;4998862;28;20474;-75
2021/03/29 06:08:51;;;;;;;14.07;3.58;;;4.00;99.90;;;;;;4983312;28;20061;-75
2021/03/29 06:11:31;;;;;;;12.35;5.30;;;3.60;99.90;;;;;;5001669;28;20375;-75
2021/03/29 06:14:09;;;;;;;9.20;4.28;;;3.50;99.90;;;;;;4982278;28;20018;-76
2021/03/29 06:16:57;;;;;;;7.18;4.47;;;3.50;99.90;;;;;;5005973;28;20525;-76
2021/03/29 06:19:44;;;;;;;8.15;4.97;;;3.80;99.90;;;;;;4999839;28;20034;-75
2021/03/29 06:22:14;;;;;;;6.10;4.03;;;3.80;99.90;;;;;;4998834;28;20051;-75
2021/03/29 06:25:04;;;;;;;;;;;3.90;99.90;;;;;;4998983;28;20073;-75
2021/03/29 06:27:39;;;;;;;7.40;4.70;;;4.00;99.90;;;;;;4990228;28;19906;-79
2021/03/29 06:30:32;;;;;;;7.45;4.00;;;4.30;99.90;;;;;;4999586;28;20648;-75
2021/03/29 06:33:04;;;;;;;6.13;3.92;;;4.40;99.90;;;;;;5002696;28;20034;-75
2021/03/29 06:35:39;;;;;;;8.05;3.97;;;4.40;99.90;;;;;;5001986;28;20026;-76
2021/03/29 06:38:15;;;;;;;10.50;4.85;;;4.40;99.90;;;;;;5008992;28;20035;-75
2021/03/29 06:40:45;;;;;;;9.88;4.43;;;4.60;99.90;;;;;;5009850;28;20067;-75
2021/03/29 06:43:26;;;;;;;5.85;3.35;;;4.70;99.90;;;;;;5011869;28;20116;-75
2021/03/29 06:45:55;;;;;;;8.98;4.40;;;4.80;99.90;;;;;;4996240;28;20035;-75
2021/03/29 06:48:25;;;;;;;8.35;4.18;;;4.70;99.90;;;;;;4993440;28;20030;-76
2021/03/29 06:51:20;;;;;;;10.80;3.95;;;4.80;99.90;;;;;;4992691;28;20030;-75
2021/03/29 06:53:51;;;;;;;36.72;5.50;;;4.90;99.90;;;;;;4992753;28;20034;-75
2021/03/29 06:56:26;;;;;;;14.00;3.85;;;5.20;99.90;;;;;;4992682;28;20065;-75
2021/03/29 06:58:55;;;;;;;9.57;4.00;;;5.30;99.90;;;;;;4992533;28;20498;-75
2021/03/29 07:01:26;;;;;;;9.48;4.60;;;5.40;99.90;;;;;;4993093;28;20026;-76
2021/03/29 07:03:54;;;;;;;10.95;4.35;;;5.40;99.90;;;;;;4996310;28;20046;-75
2021/03/29 07:06:25;;;;;;;6.60;4.25;;;5.50;99.90;;;;;;4996518;28;20026;-76
2021/03/29 07:08:52;;;;;;;13.75;5.45;;;5.40;99.90;;;;;;4995912;28;20088;-76
2021/03/29 07:11:20;;;;;;;13.70;4.18;;;5.50;99.90;;;;;;4996400;28;20521;-75
2021/03/29 07:13:47;;;;;;;8.77;3.95;;;5.60;99.90;;;;;;4996256;28;20378;-76
2021/03/29 07:16:14;;;;;;;12.82;5.72;;;5.70;99.90;;;;;;4996059;28;20031;-75
2021/03/29 07:18:41;;;;;;;7.72;5.35;;;5.90;99.90;;;;;;4996098;28;20409;-75
2021/03/29 07:21:10;;;;;;;15.27;6.97;;;6.10;99.90;;;;;;4996060;28;20172;-75
2021/03/29 07:23:37;;;;;;;7.60;4.78;;;6.20;99.90;;;;;;4995819;28;20498;-75
2021/03/29 07:26:22;;;;;;;10.13;5.35;;;6.40;99.90;;;;;;4995886;28;20081;-76
2021/03/29 07:28:49;;;;;;;7.35;5.45;;;6.70;99.90;;;;;;4995739;28;20034;-76
2021/03/29 07:31:41;;;;;;;10.00;5.03;;;6.90;99.90;;;;;;5011578;28;20061;-76
2021/03/29 07:34:08;;;;;;;8.50;5.30;;;7.20;99.90;;;;;;5015329;28;20033;-75
2021/03/29 07:36:48;;;;;;;11.63;5.57;;;7.40;99.90;;;;;;5015490;28;20053;-75
2021/03/29 07:39:36;;;;;;;5.47;4.60;;;7.60;99.90;;;;;;5014785;28;20029;-76
2021/03/29 07:42:24;;;;;;;10.13;5.18;;;7.80;99.90;;;;;;5015113;28;20083;-76
2021/03/29 07:44:54;;;;;;;9.73;5.25;;;8.10;99.90;;;;;;5015119;28;20022;-75
2021/03/29 07:47:44;;;;;;;7.40;4.78;;;8.40;99.90;;;;;;5015300;28;20025;-75
2021/03/29 07:50:35;;;;;;;9.35;4.80;;;8.60;99.90;;;;;;5014843;28;20487;-76
2021/03/29 07:53:02;;;;;;;12.60;4.43;;;8.90;99.90;;;;;;5007300;28;20406;-75
2021/03/29 07:55:31;;;;;;;6.85;3.67;;;9.60;99.90;;;;;;5015225;28;20026;-76
2021/03/29 07:57:56;;;;;;;4.10;3.15;;;9.90;99.90;;;;;;5014994;28;20033;-75
2021/03/29 08:00:22;;;;;;;5.00;2.85;;;10.40;96.60;;;;;;5015160;28;20034;-75
2021/03/29 08:02:48;;;;;;;6.80;3.28;;;10.80;97.40;;;;;;5014943;28;20030;-75
2021/03/29 08:05:17;;;;;;;6.90;2.70;;;11.30;97.00;;;;;;5014918;28;20394;-75
2021/03/29 08:07:46;;;;;;;10.63;3.08;;;11.70;93.00;;;;;;5014739;28;20030;-75
2021/03/29 08:10:14;;;;;;;5.82;2.58;;;12.00;93.00;;;;;;5013366;28;20041;-75
2021/03/29 08:13:01;;;;;;;8.00;2.53;;;12.30;85.90;;;;;;5014841;28;20478;-75
2021/03/29 08:15:58;;;;;;;8.20;2.72;;;12.40;85.10;;;;;;5014637;28;20115;-76
2021/03/29 08:18:24;;;;;;;5.60;2.45;;;12.60;83.70;;;;;;5013364;28;20560;-76
2021/03/29 08:20:53;;;;;;;8.48;2.80;;;12.90;84.40;;;;;;5014592;28;20500;-75
2021/03/29 08:23:38;;;;;;;3.72;2.28;;;13.10;81.10;;;;;;5014143;28;20022;-76
2021/03/29 08:26:14;;;;;;;3.85;2.63;;;13.40;82.50;;;;;;5013267;28;20109;-75
2021/03/29 08:29:07;;;;;;;7.43;3.45;;;13.70;78.30;;;;;;5014305;28;20040;-75
2021/03/29 08:32:04;;;;;;;3.63;1.90;;;13.80;77.20;;;;;;5014612;28;20540;-75
2021/03/29 08:34:35;;;;;;;4.70;2.50;;;13.90;73.30;;;;;;5013115;28;20026;-75
2021/03/29 08:37:06;;;;;;;10.10;3.03;;;14.30;74.90;;;;;;5014140;28;20030;-75
2021/03/29 08:39:53;;;;;;;5.15;2.42;;;14.40;75.00;;;;;;5014120;28;20029;-75
2021/03/29 08:42:22;;;;;;;4.47;2.13;;;14.80;77.80;;;;;;5014064;28;20470;-75
2021/03/29 08:44:50;;;;;;;5.27;2.43;;;15.10;73.30;;;;;;5014289;28;20405;-76
2021/03/29 08:47:19;;;;;;;7.03;2.40;;;15.40;72.70;;;;;;5013962;28;20033;-75
2021/03/29 08:49:48;;;;;;;5.53;2.63;;;15.70;74.10;;;;;;5013958;28;20066;-75
2021/03/29 08:52:14;;;;;;;9.50;2.90;;;18.70;66.10;;;;;;5013626;28;20045;-76
2021/03/29 08:54:49;;;;;;;3.00;2.45;;;20.90;52.50;;;;;;5014185;28;20053;-76
2021/03/29 08:57:15;;;;;;;4.07;2.92;;;22.30;50.60;;;;;;5012631;28;20107;-76
2021/03/29 08:59:41;;;;;;;3.53;2.40;;;23.80;49.40;;;;;;5014146;28;20084;-76
2021/03/29 09:02:15;;;;;;;5.10;2.55;;;24.90;47.40;;;;;;5013682;28;20559;-76
2021/03/29 09:04:51;;;;;;;3.08;2.75;;;24.00;46.40;;;;;;5013498;28;20129;-76
2021/03/29 09:07:17;;;;;;;7.70;3.05;;;23.80;46.30;;;;;;5013658;28;20042;-76
2021/03/29 09:09:44;;;;;;;4.85;3.38;;;24.50;44.90;;;;;;5013662;28;20605;-76
2021/03/29 09:12:21;;;;;;;5.82;2.85;;;24.40;45.90;;;;;;5013551;28;20152;-76
2021/03/29 09:14:47;;;;;;;3.33;2.92;;;24.80;44.30;;;;;;5013866;28;20036;-76
2021/03/29 09:17:25;;;;;;;3.55;2.63;;;24.60;44.20;;;;;;5013329;28;20116;-76
2021/03/29 09:19:51;;;;;;;3.83;2.63;;;24.60;45.60;;;;;;5013467;28;20025;-76
2021/03/29 09:22:28;;;;;;;10.07;2.60;;;25.20;42.90;;;;;;5013529;28;20029;-77
2021/03/29 09:24:54;;;;;;;4.80;2.65;;;25.60;45.70;;;;;;5011703;28;20130;-76
2021/03/29 09:27:25;;;;;;;3.83;3.05;;;25.90;42.50;;;;;;5013368;28;20561;-77
2021/03/29 09:29:51;;;;;;;5.10;3.30;;;25.00;44.30;;;;;;5012922;28;20049;-77
2021/03/29 09:32:20;;;;;;;2.78;2.35;;;25.20;43.00;;;;;;5013357;28;20061;-77
2021/03/29 09:34:47;;;;;;;4.18;2.80;;;26.40;44.10;;;;;;5013072;28;20025;-77
2021/03/29 09:37:21;;;;;;;3.60;2.78;;;26.20;40.90;;;;;;5013216;28;20053;-77
2021/03/29 09:39:48;;;;;;;3.45;2.88;;;26.70;41.90;;;;;;5013098;28;20544;-77
2021/03/29 09:42:16;;;;;;;3.22;2.92;;;26.90;41.60;;;;;;5013120;28;20482;-77
2021/03/29 09:44:43;;;;;;;4.07;3.15;;;26.50;40.70;;;;;;5013043;28;20108;-77
2021/03/29 09:47:09;;;;;;;6.13;3.08;;;26.50;41.60;;;;;;5011866;28;20084;-77
2021/03/29 09:49:49;;;;;;;3.40;2.60;;;27.20;42.50;;;;;;5012513;28;20436;-77
2021/03/29 09:52:15;;;;;;;4.60;2.70;;;27.10;41.20;;;;;;5012893;28;20049;-77
2021/03/29 09:54:48;;;;;;;2.97;2.63;;;27.30;40.90;;;;;;5012893;28;20026;-77
2021/03/29 09:57:21;;;;;;;3.13;2.83;;;25.50;43.30;;;;;;5012898;28;20025;-77
2021/03/29 09:59:47;;;;;;;4.70;3.05;;;26.80;43.30;;;;;;5013114;28;20478;-77
2021/03/29 10:02:25;;;;;;;5.47;2.92;;;27.00;42.20;;;;;;5012948;28;20021;-77
2021/03/29 10:05:05;;;;;;;4.13;2.72;;;26.80;42.20;;;;;;5012377;28;20034;-77
2021/03/29 10:07:31;;;;;;;5.90;2.75;;;28.10;41.60;;;;;;5011516;28;20409;-77
2021/03/29 10:10:01;;;;;;;3.15;2.67;;;28.40;40.50;;;;;;5012657;28;20030;-78
2021/03/29 10:12:29;;;;;;;3.25;2.83;;;28.20;39.50;;;;;;5011337;28;20036;-78
2021/03/29 10:15:08;;;;;;;3.10;2.67;;;28.10;39.70;;;;;;5012920;28;20032;-78
2021/03/29 10:17:34;;;;;;;5.68;3.63;;;27.70;41.40;;;;;;5010881;28;20049;-78
2021/03/29 10:20:10;;;;;;;5.78;3.28;;;28.70;38.80;;;;;;5012848;28;20069;-78
2021/03/29 10:22:37;;;;;;;4.20;2.80;;;28.80;39.70;;;;;;5012792;28;20041;-78
2021/03/29 10:25:21;;;;;;;2.95;2.65;;;28.40;40.10;;;;;;5012742;28;20057;-78
2021/03/29 10:27:53;;;;;;;4.30;2.75;;;29.30;41.60;;;;;;5012671;28;20035;-78
2021/03/29 10:30:19;;;;;;;4.90;3.22;;;29.90;38.70;;;;;;5012255;28;20042;-78
2021/03/29 10:32:55;;;;;;;3.55;2.80;;;30.00;38.70;;;;;;5012209;28;20076;-78
2021/03/29 10:35:23;;;;;;;5.07;2.97;;;30.00;40.10;;;;;;5012384;28;20040;-78
2021/03/29 10:37:50;;;;;;;6.18;2.75;;;30.30;38.80;;;;;;5015389;28;20417;-78
2021/03/29 10:40:17;;;;;;;5.32;2.80;;;29.50;39.90;;;;;;5016475;28;20581;-78
2021/03/29 10:42:43;;;;;;;4.40;2.78;;;29.50;37.70;;;;;;5016408;28;20030;-78
2021/03/29 10:45:14;;;;;;;3.28;2.97;;;29.90;37.30;;;;;;5016490;28;20034;-78
2021/03/29 10:47:40;;;;;;;4.00;2.70;;;29.00;37.90;;;;;;5015924;28;20057;-78
2021/03/29 10:50:12;;;;;;;5.00;2.85;;;30.30;37.80;;;;;;5016363;28;20107;-78
2021/03/29 10:52:38;;;;;;;4.65;2.90;;;30.50;38.60;;;;;;5016251;28;20132;-78
2021/03/29 10:55:06;;;;;;;4.72;3.20;;;30.00;37.20;;;;;;5016398;28;20033;-78
2021/03/29 10:57:32;;;;;;;7.57;3.70;;;30.10;39.40;;;;;;5016128;28;20887;-78
2021/03/29 10:59:57;;;;;;;7.40;2.97;;;31.40;39.30;;;;;;5016133;28;20029;-78
2021/03/29 11:02:23;;;;;;;3.53;3.22;;;32.10;37.00;;;;;;5015953;28;20109;-78
2021/03/29 11:04:49;;;;;;;3.10;2.80;;;31.70;35.10;;;;;;5015884;28;20030;-78
2021/03/29 11:07:15;;;;;;;4.30;2.85;;;30.80;34.60;;;;;;5016078;28;20544;-78
2021/03/29 11:09:41;;;;;;;3.15;2.85;;;32.00;36.00;;;;;;5015851;28;20037;-78
2021/03/29 11:12:08;;;;;;;4.10;2.95;;;32.50;35.10;;;;;;5015898;28;20032;-78
2021/03/29 11:14:34;;;;;;;4.43;2.85;;;33.80;33.80;;;;;;5015830;28;20101;-78
2021/03/29 11:17:00;;;;;;;4.20;2.83;;;33.00;33.60;;;;;;5015390;28;20018;-78
2021/03/29 11:19:26;;;;;;;5.10;2.60;;;33.10;35.30;;;;;;5015750;28;20022;-78
2021/03/29 11:21:52;;;;;;;5.80;3.22;;;33.30;34.20;;;;;;5015572;28;20021;-78
2021/03/29 11:24:20;;;;;;;7.65;3.00;;;32.30;33.40;;;;;;5016037;28;20057;-78
2021/03/29 11:26:46;;;;;;;3.72;2.80;;;32.80;34.30;;;;;;5015486;28;20109;-78
2021/03/29 11:29:12;;;;;;;3.17;2.72;;;33.40;34.20;;;;;;5015676;28;20041;-78
2021/03/29 11:31:40;;;;;;;6.00;3.45;;;33.50;34.30;;;;;;5013924;28;20042;-78
2021/03/29 11:34:06;;;;;;;6.80;2.90;;;32.30;34.30;;;;;;5014397;28;20054;-78
2021/03/29 11:36:33;;;;;;;3.38;2.83;;;33.20;35.40;;;;;;5014434;28;20444;-78
2021/03/29 11:38:58;;;;;;;5.32;2.92;;;34.10;35.30;;;;;;5014488;28;20029;-78
2021/03/29 11:41:25;;;;;;;3.28;2.80;;;33.70;33.80;;;;;;5014142;28;20083;-78
2021/03/29 11:43:51;;;;;;;5.80;2.60;;;33.70;33.10;;;;;;5014139;28;20030;-78
2021/03/29 11:46:17;;;;;;;3.85;2.85;;;33.10;33.80;;;;;;5013999;28;20030;-78
2021/03/29 11:48:43;;;;;;;3.25;2.83;;;32.20;33.90;;;;;;5013417;28;20065;-78
2021/03/29 11:51:09;;;;;;;3.65;3.35;;;31.80;36.10;;;;;;5014164;28;20382;-78
2021/03/29 11:53:35;;;;;;;5.30;3.08;;;32.50;33.90;;;;;;5014036;28;20529;-78
2021/03/29 11:56:02;;;;;;;6.30;3.10;;;33.50;33.50;;;;;;5013884;28;20045;-78
2021/03/29 11:58:28;;;;;;;5.22;2.90;;;33.50;35.20;;;;;;5013765;28;20057;-78
2021/03/29 12:00:58;;;;;;;3.35;2.90;;;32.80;33.40;;;;;;5013748;28;20033;-78
2021/03/29 12:05:59;;;;;;;7.07;3.20;;;32.60;33.80;;;;;;5013800;28;20047;-78
2021/03/29 12:08:29;;;;;;;8.57;4.00;;;32.80;33.50;;;;;;5013766;28;20455;-78
2021/03/29 12:13:42;;;;;;;5.90;3.10;;;32.90;33.90;;;;;;5013605;28;20080;-78
2021/03/29 12:16:08;;;;;;;7.35;2.90;;;33.20;33.50;;;;;;5013456;28;20398;-78
2021/03/29 12:18:55;;;;;;;4.55;3.00;;;32.80;32.90;;;;;;5013718;28;20500;-78
2021/03/29 12:21:28;;;;;;;4.30;3.10;;;32.00;34.50;;;;;;5013586;28;20099;-78
2021/03/29 12:23:59;;;;;;;4.05;2.78;;;32.50;33.70;;;;;;5013484;28;20529;-78
2021/03/29 12:26:27;;;;;;;7.88;3.35;;;32.70;33.20;;;;;;5013798;28;20029;-78
2021/03/29 12:28:54;;;;;;;5.90;3.33;;;32.80;32.30;;;;;;5013159;28;20037;-78
2021/03/29 12:31:21;;;;;;;5.22;3.85;;;32.40;33.70;;;;;;4984665;28;850650;-78
2021/03/29 12:33:49;;;;;;;6.32;2.80;;;32.60;33.30;;;;;;5014450;28;20021;-78
2021/03/29 12:36:15;;;;;;;6.35;3.00;;;31.90;34.50;;;;;;5014435;28;20033;-78
2021/03/29 12:38:48;;;;;;;3.83;2.70;;;32.20;33.70;;;;;;5014344;28;20513;-78
2021/03/29 12:41:15;;;;;;;4.85;3.35;;;32.50;32.90;;;;;;5014009;28;20477;-78
2021/03/29 12:43:51;;;;;;;3.97;2.95;;;32.50;32.80;;;;;;5014006;28;20110;-78
2021/03/29 12:46:19;;;;;;;11.73;3.08;;;32.80;33.50;;;;;;5014251;28;20482;-78
2021/03/29 12:48:45;;;;;;;3.15;2.90;;;33.40;32.80;;;;;;5013957;28;20034;-78
2021/03/29 12:51:13;;;;;;;5.88;3.05;;;33.50;32.10;;;;;;5014001;28;20056;-78
2021/03/29 12:53:39;;;;;;;3.08;2.88;;;32.70;32.20;;;;;;5014031;28;20017;-78
2021/03/29 12:56:05;;;;;;;4.72;3.60;;;32.60;33.00;;;;;;5013881;28;20033;-78
2021/03/29 12:58:38;;;;;;;6.43;3.05;;;32.10;34.40;;;;;;5013575;28;20378;-78
2021/03/29 13:01:12;;;;;;;9.98;3.03;;;31.20;33.80;;;;;;5013350;28;20045;-78
2021/03/29 13:03:43;;;;;;;114.32;8.68;;;32.80;34.70;;;;;;5013863;28;20486;-78
2021/03/29 13:06:37;;;;;;;10.32;2.67;;;33.20;33.80;;;;;;5013755;28;20045;-78
2021/03/29 13:09:02;;;;;;;6.40;3.40;;;32.60;32.30;;;;;;5013189;28;20071;-78
2021/03/29 13:11:30;;;;;;;524.85;40.55;;;32.10;32.80;;;;;;5013421;28;20037;-78
2021/03/29 13:14:00;;;;;;;79.57;10.88;;;32.70;35.00;;;;;;5013590;28;20018;-78
2021/03/29 13:16:27;;;;;;;15.38;3.58;;;32.60;32.70;;;;;;5013870;28;20029;-78